createdAt,value
2023-05-14T00:01:23.888Z,49.60
2023-05-14T00:03:50.911Z,49.80
2023-05-14T00:06:17.843Z,49.90
2023-05-14T00:08:44.666Z,49.90
2023-05-14T00:11:11.493Z,50.00
2023-05-14T00:13:38.421Z,50.30
2023-05-14T00:16:05.654Z,50.50
2023-05-14T00:18:32.740Z,50.50
2023-05-14T00:20:59.587Z,50.70
2023-05-14T00:23:26.386Z,50.60
2023-05-14T00:25:53.215Z,50.70
2023-05-14T00:28:20.698Z,50.70
2023-05-14T00:30:48.538Z,50.80
2023-05-14T00:33:15.998Z,51.00
2023-05-14T00:35:43.471Z,51.10
2023-05-14T00:38:16.792Z,51.10
2023-05-14T00:40:45.899Z,51.30
2023-05-14T00:43:12.770Z,51.30
2023-05-14T00:45:39.782Z,51.40
2023-05-14T00:48:07.169Z,51.50
2023-05-14T00:50:34.614Z,51.60
2023-05-14T00:53:01.683Z,51.60
2023-05-14T00:55:30.804Z,51.60
2023-05-14T00:57:58.958Z,51.70
2023-05-14T01:00:26.152Z,51.80
2023-05-14T01:02:53.041Z,51.80
2023-05-14T01:05:20.255Z,51.70
2023-05-14T01:08:07.700Z,51.80
2023-05-14T01:10:45.866Z,51.90
2023-05-14T01:13:27.883Z,52.10
2023-05-14T01:15:58.128Z,51.90
2023-05-14T01:18:26.101Z,52.10
2023-05-14T01:20:54.522Z,52.20
2023-05-14T01:23:21.296Z,52.20
2023-05-14T01:25:48.092Z,52.30
2023-05-14T01:28:20.217Z,52.20
2023-05-14T01:31:16.269Z,52.20
2023-05-14T01:33:44.758Z,52.40
2023-05-14T01:36:11.653Z,52.40
2023-05-14T01:38:39.714Z,52.50
2023-05-14T01:41:06.790Z,52.70
2023-05-14T01:43:34.513Z,52.90
2023-05-14T01:46:01.465Z,53.70
2023-05-14T01:48:29.890Z,53.00
2023-05-14T01:50:57.135Z,53.10
2023-05-14T01:53:23.964Z,53.20
2023-05-14T01:55:50.826Z,53.30
2023-05-14T01:58:17.708Z,53.30
2023-05-14T02:00:44.497Z,53.20
2023-05-14T02:03:11.438Z,53.40
2023-05-14T02:05:38.341Z,53.40
2023-05-14T02:08:05.428Z,53.60
2023-05-14T02:10:32.708Z,53.60
2023-05-14T02:12:59.531Z,53.80
2023-05-14T02:15:26.443Z,53.90
2023-05-14T02:17:53.279Z,53.90
2023-05-14T02:20:20.135Z,53.90
2023-05-14T02:22:46.966Z,53.80
2023-05-14T02:25:13.774Z,53.70
2023-05-14T02:27:40.600Z,53.80
2023-05-14T02:30:08.015Z,53.80
2023-05-14T02:32:34.874Z,53.80
2023-05-14T02:35:01.908Z,53.80
2023-05-14T02:37:28.710Z,53.60
2023-05-14T02:39:55.487Z,53.60
2023-05-14T02:42:22.916Z,53.70
2023-05-14T02:44:49.814Z,53.60
2023-05-14T02:47:16.620Z,53.70
2023-05-14T02:49:43.404Z,53.70
2023-05-14T02:52:10.383Z,53.70
2023-05-14T02:54:37.271Z,53.80
2023-05-14T02:57:04.391Z,53.90
2023-05-14T02:59:31.655Z,54.00
2023-05-14T03:01:59.093Z,54.00
2023-05-14T03:04:26.574Z,54.00
2023-05-14T03:06:53.395Z,53.70
2023-05-14T03:09:20.266Z,53.80
2023-05-14T03:11:47.125Z,54.00
2023-05-14T03:14:14.106Z,54.10
2023-05-14T03:16:42.385Z,54.10
2023-05-14T03:19:09.999Z,54.10
2023-05-14T03:21:37.100Z,54.40
2023-05-14T03:24:04.019Z,54.50
2023-05-14T03:26:30.892Z,54.50
2023-05-14T03:28:57.693Z,54.50
2023-05-14T03:31:24.998Z,54.50
2023-05-14T03:33:52.127Z,54.50
2023-05-14T03:36:18.935Z,54.60
2023-05-14T03:38:47.934Z,54.60
2023-05-14T03:41:15.498Z,54.70
2023-05-14T03:43:42.737Z,54.70
2023-05-14T03:46:09.531Z,54.70
2023-05-14T03:48:36.595Z,54.80
2023-05-14T03:51:04.921Z,55.00
2023-05-14T03:53:31.701Z,55.30
2023-05-14T03:55:58.613Z,55.40
2023-05-14T03:58:25.579Z,55.60
2023-05-14T04:00:53.709Z,55.80
2023-05-14T04:03:20.638Z,55.80
2023-05-14T04:05:47.653Z,55.80
2023-05-14T04:08:14.467Z,56.10
2023-05-14T04:10:43.041Z,56.20
2023-05-14T04:13:09.888Z,56.30
2023-05-14T04:15:39.990Z,56.40
2023-05-14T04:18:07.668Z,56.40
2023-05-14T04:20:34.588Z,56.40
2023-05-14T04:23:01.358Z,56.40
2023-05-14T04:25:28.182Z,56.40
2023-05-14T04:27:54.946Z,56.60
2023-05-14T04:30:22.264Z,56.60
2023-05-14T04:32:49.153Z,56.60
2023-05-14T04:35:16.266Z,56.60
2023-05-14T04:37:43.040Z,56.50
2023-05-14T04:40:11.341Z,56.40
2023-05-14T04:42:38.910Z,56.20
2023-05-14T04:45:06.843Z,56.30
2023-05-14T04:47:33.837Z,56.30
2023-05-14T04:50:00.704Z,56.50
2023-05-14T04:52:27.708Z,56.50
2023-05-14T04:54:54.926Z,56.60
2023-05-14T04:57:21.834Z,56.60
2023-05-14T04:59:48.619Z,56.80
2023-05-14T05:02:15.502Z,56.80
2023-05-14T05:04:42.271Z,56.70
2023-05-14T05:07:09.027Z,56.70
2023-05-14T05:09:35.827Z,57.00
2023-05-14T05:12:02.646Z,56.80
2023-05-14T05:14:29.621Z,56.90
2023-05-14T05:16:56.548Z,56.80
2023-05-14T05:19:35.843Z,56.70
2023-05-14T05:22:06.951Z,56.60
2023-05-14T05:24:33.771Z,56.20
2023-05-14T05:27:00.648Z,56.40
2023-05-14T05:29:27.478Z,56.50
2023-05-14T05:31:54.371Z,56.60
2023-05-14T05:34:21.463Z,56.40
2023-05-14T05:36:48.312Z,56.60
2023-05-14T05:39:15.112Z,56.60
2023-05-14T05:41:43.592Z,56.60
2023-05-14T05:44:10.444Z,56.40
2023-05-14T05:46:37.685Z,56.50
2023-05-14T05:49:04.536Z,56.50
2023-05-14T05:51:31.447Z,56.40
2023-05-14T05:53:58.389Z,56.70
2023-05-14T05:56:25.182Z,56.70
2023-05-14T05:58:52.138Z,56.50
2023-05-14T06:01:18.920Z,56.30
2023-05-14T06:03:48.260Z,56.20
2023-05-14T06:06:15.738Z,56.50
2023-05-14T06:08:42.612Z,56.60
2023-05-14T06:11:09.426Z,56.50
2023-05-14T06:13:36.178Z,56.40
2023-05-14T06:16:03.013Z,56.50
2023-05-14T06:18:29.867Z,56.40
2023-05-14T06:20:57.360Z,56.60
2023-05-14T06:23:24.084Z,56.40
2023-05-14T06:25:51.128Z,56.40
2023-05-14T06:28:17.986Z,56.40
2023-05-14T06:30:44.756Z,56.50
2023-05-14T06:33:13.425Z,56.50
2023-05-14T06:35:40.417Z,56.50
2023-05-14T06:38:07.144Z,56.40
2023-05-14T06:40:33.934Z,56.20
2023-05-14T06:43:00.699Z,56.30
2023-05-14T06:45:27.458Z,56.40
2023-05-14T06:47:55.707Z,56.40
2023-05-14T06:50:22.710Z,56.60
2023-05-14T06:52:49.645Z,56.30
2023-05-14T06:55:16.543Z,56.10
2023-05-14T06:57:44.046Z,55.60
2023-05-14T07:00:11.270Z,55.60
2023-05-14T07:02:38.060Z,55.20
2023-05-14T07:05:05.069Z,55.50
2023-05-14T07:07:31.831Z,54.70
2023-05-14T07:09:58.659Z,54.20
2023-05-14T07:12:25.820Z,53.80
2023-05-14T07:14:52.665Z,53.70
2023-05-14T07:17:19.493Z,53.70
2023-05-14T07:19:47.334Z,53.80
2023-05-14T07:22:14.171Z,53.70
2023-05-14T07:24:41.000Z,53.50
2023-05-14T07:27:08.627Z,52.60
2023-05-14T07:29:35.498Z,52.80
2023-05-14T07:32:02.345Z,52.80
2023-05-14T07:34:29.118Z,52.60
2023-05-14T07:36:56.215Z,52.40
2023-05-14T07:39:22.986Z,51.30
2023-05-14T07:41:50.172Z,50.60
2023-05-14T07:44:17.108Z,50.50
2023-05-14T07:46:43.926Z,50.60
2023-05-14T07:49:10.817Z,50.30
2023-05-14T07:51:37.833Z,50.30
2023-05-14T07:54:05.096Z,49.60
2023-05-14T07:56:32.161Z,50.00
2023-05-14T07:58:59.237Z,50.70
2023-05-14T08:01:26.363Z,51.10
2023-05-14T08:03:53.219Z,51.00
2023-05-14T08:06:21.801Z,50.40
2023-05-14T08:08:48.851Z,50.60
2023-05-14T08:11:15.807Z,50.80
2023-05-14T08:13:42.687Z,50.60
2023-05-14T08:16:09.752Z,50.70
2023-05-14T08:18:36.644Z,50.90
2023-05-14T08:21:03.801Z,50.60
2023-05-14T08:23:30.816Z,50.20
2023-05-14T08:25:57.710Z,50.20
2023-05-14T08:28:24.526Z,49.70
2023-05-14T08:30:51.566Z,49.50
2023-05-14T08:33:18.590Z,49.20
2023-05-14T08:35:45.452Z,48.50
2023-05-14T08:38:12.354Z,48.80
2023-05-14T08:40:39.347Z,49.00
2023-05-14T08:43:07.572Z,48.70
2023-05-14T08:45:35.410Z,47.80
2023-05-14T08:48:06.737Z,47.10
2023-05-14T08:50:33.876Z,47.30
2023-05-14T08:53:00.672Z,47.10
2023-05-14T08:55:28.448Z,47.40
2023-05-14T08:57:56.154Z,47.20
2023-05-14T09:00:23.495Z,46.80
2023-05-14T09:02:51.519Z,46.30
2023-05-14T09:05:19.462Z,45.20
2023-05-14T09:07:46.718Z,45.20
2023-05-14T09:10:15.447Z,44.60
2023-05-14T09:12:42.373Z,45.00
2023-05-14T09:15:09.625Z,45.00
2023-05-14T09:17:36.594Z,44.30
2023-05-14T09:20:04.563Z,44.00
2023-05-14T09:22:32.335Z,44.20
2023-05-14T09:25:07.462Z,43.70
2023-05-14T09:27:34.717Z,43.50
2023-05-14T09:30:06.375Z,43.50
2023-05-14T09:32:38.044Z,43.10
2023-05-14T09:35:18.904Z,43.10
2023-05-14T09:37:51.184Z,42.60
2023-05-14T09:40:19.624Z,41.50
2023-05-14T09:42:48.202Z,41.70
2023-05-14T09:45:15.619Z,41.20
2023-05-14T09:47:42.536Z,40.10
2023-05-14T09:50:09.713Z,39.40
2023-05-14T09:52:37.300Z,39.90
2023-05-14T09:55:04.481Z,39.80
2023-05-14T09:57:31.396Z,39.80
2023-05-14T09:59:58.229Z,38.70
2023-05-14T10:02:30.184Z,39.50
2023-05-14T10:05:02.470Z,39.50
2023-05-14T10:07:47.632Z,38.40
2023-05-14T10:10:18.603Z,37.80
2023-05-14T10:12:56.183Z,38.00
2023-05-14T10:15:50.051Z,38.10
2023-05-14T10:18:19.700Z,37.60
2023-05-14T10:20:52.957Z,35.60
2023-05-14T10:23:20.086Z,36.20
2023-05-14T10:25:46.958Z,36.60
2023-05-14T10:28:13.898Z,36.60
2023-05-14T10:30:46.926Z,35.80
2023-05-14T10:33:16.536Z,35.50
2023-05-14T10:36:03.910Z,35.30
2023-05-14T10:38:36.534Z,35.00
2023-05-14T10:41:11.666Z,35.30
2023-05-14T10:43:42.318Z,34.80
2023-05-14T10:46:11.292Z,33.80
2023-05-14T10:48:41.562Z,34.80
2023-05-14T10:51:10.208Z,35.30
2023-05-14T10:53:39.510Z,34.80
2023-05-14T10:56:14.218Z,34.30
2023-05-14T10:58:43.792Z,33.80
2023-05-14T11:01:13.192Z,33.70
2023-05-14T11:03:45.276Z,34.20
2023-05-14T11:06:14.916Z,34.80
2023-05-14T11:08:42.610Z,33.90
2023-05-14T11:11:10.747Z,33.20
2023-05-14T11:13:38.008Z,33.40
2023-05-14T11:16:18.954Z,33.50
2023-05-14T11:19:00.802Z,33.60
2023-05-14T11:21:27.908Z,33.70
2023-05-14T11:23:55.660Z,32.20
2023-05-14T11:26:23.954Z,32.50
2023-05-14T11:28:50.947Z,32.10
2023-05-14T11:31:18.087Z,31.00
2023-05-14T11:33:44.905Z,31.70
2023-05-14T11:36:12.497Z,31.90
2023-05-14T11:38:49.439Z,31.90
2023-05-14T11:41:16.212Z,32.10
2023-05-14T11:43:43.199Z,31.20
2023-05-14T11:46:18.059Z,32.00
2023-05-14T11:48:45.581Z,31.90
2023-05-14T11:51:12.684Z,32.10
2023-05-14T11:53:39.639Z,32.00
2023-05-14T11:56:08.269Z,32.60
2023-05-14T11:58:36.605Z,33.40
2023-05-14T12:01:03.473Z,34.30
2023-05-14T12:03:30.978Z,33.70
2023-05-14T12:05:59.819Z,34.40
2023-05-14T12:08:29.106Z,34.50
2023-05-14T12:10:57.767Z,33.90
2023-05-14T12:13:31.846Z,33.70
2023-05-14T12:16:01.974Z,32.70
2023-05-14T12:18:33.553Z,33.70
2023-05-14T12:21:05.098Z,33.30
2023-05-14T12:23:32.875Z,32.90
2023-05-14T12:26:07.528Z,32.00
2023-05-14T12:28:38.007Z,32.90
2023-05-14T12:31:04.978Z,32.10
2023-05-14T12:33:31.770Z,32.80
2023-05-14T12:36:07.405Z,32.80
2023-05-14T12:38:41.585Z,32.80
2023-05-14T12:41:08.344Z,33.60
2023-05-14T12:43:35.090Z,33.00
2023-05-14T12:46:01.904Z,33.70
2023-05-14T12:48:28.708Z,33.80
2023-05-14T12:50:55.566Z,32.70
2023-05-14T12:53:22.430Z,33.10
2023-05-14T12:55:49.689Z,33.30
2023-05-14T12:58:16.488Z,32.80
2023-05-14T13:00:43.336Z,33.60
2023-05-14T13:03:10.272Z,32.90
2023-05-14T13:05:37.658Z,32.40
2023-05-14T13:08:04.468Z,32.80
2023-05-14T13:10:31.304Z,33.00
2023-05-14T13:12:58.224Z,32.80
2023-05-14T13:15:25.390Z,33.60
2023-05-14T13:17:52.751Z,33.80
2023-05-14T13:20:19.877Z,33.60
2023-05-14T13:22:46.652Z,34.30
2023-05-14T13:25:13.472Z,34.40
2023-05-14T13:27:40.254Z,34.60
2023-05-14T13:30:07.659Z,36.10
2023-05-14T13:32:34.620Z,35.00
2023-05-14T13:35:01.470Z,35.20
2023-05-14T13:37:28.572Z,35.20
2023-05-14T13:39:55.710Z,34.80
2023-05-14T13:42:23.580Z,35.20
2023-05-14T13:44:50.744Z,34.70
2023-05-14T13:47:17.885Z,35.50
2023-05-14T13:49:44.896Z,35.50
2023-05-14T13:52:11.658Z,35.40
2023-05-14T13:54:38.540Z,34.60
2023-05-14T13:57:05.613Z,35.70
2023-05-14T13:59:32.401Z,35.50
2023-05-14T14:01:59.261Z,35.50
2023-05-14T14:04:28.977Z,34.90
2023-05-14T14:06:56.606Z,35.00
2023-05-14T14:09:23.925Z,34.40
2023-05-14T14:11:50.953Z,34.90
2023-05-14T14:14:18.340Z,34.50
2023-05-14T14:16:45.242Z,34.80
2023-05-14T14:19:12.390Z,34.40
2023-05-14T14:21:42.648Z,35.50
2023-05-14T14:24:09.530Z,36.20
2023-05-14T14:26:36.518Z,36.60
2023-05-14T14:29:03.371Z,37.10
2023-05-14T14:31:30.290Z,36.80
2023-05-14T14:33:57.173Z,36.90
2023-05-14T14:36:23.962Z,36.50
2023-05-14T14:38:51.179Z,36.00
2023-05-14T14:41:18.141Z,36.60
2023-05-14T14:43:44.939Z,35.80
2023-05-14T14:46:11.776Z,35.20
2023-05-14T14:48:38.650Z,35.70
2023-05-14T14:51:07.576Z,35.40
2023-05-14T14:53:36.216Z,36.40
2023-05-14T14:56:04.443Z,36.40
2023-05-14T14:58:31.430Z,36.40
2023-05-14T15:00:58.928Z,36.20
2023-05-14T15:03:26.701Z,36.70
2023-05-14T15:05:53.990Z,37.80
2023-05-14T15:08:30.110Z,37.00
2023-05-14T15:10:57.017Z,37.00
2023-05-14T15:13:24.730Z,37.30
2023-05-14T15:15:52.512Z,37.60
2023-05-14T15:18:19.496Z,38.00
2023-05-14T15:20:46.413Z,38.50
2023-05-14T15:23:13.250Z,38.70
2023-05-14T15:25:40.131Z,39.20
2023-05-14T15:28:07.661Z,38.90
2023-05-14T15:30:34.715Z,39.10
2023-05-14T15:33:01.851Z,39.20
2023-05-14T15:35:28.762Z,39.40
2023-05-14T15:37:57.284Z,39.60
2023-05-14T15:40:24.282Z,39.70
2023-05-14T15:42:51.287Z,40.00
2023-05-14T15:45:18.100Z,40.20
2023-05-14T15:47:48.098Z,39.50
2023-05-14T15:50:14.912Z,39.60
2023-05-14T15:52:41.851Z,39.60
2023-05-14T15:55:09.527Z,39.20
2023-05-14T15:57:36.375Z,40.30
2023-05-14T16:00:10.439Z,39.70
2023-05-14T16:02:39.215Z,40.10
2023-05-14T16:05:07.686Z,39.90
2023-05-14T16:07:34.570Z,40.60
2023-05-14T16:10:01.372Z,40.00
2023-05-14T16:12:28.349Z,40.10
2023-05-14T16:14:56.963Z,40.40
2023-05-14T16:17:24.023Z,40.30
2023-05-14T16:19:51.159Z,40.30
2023-05-14T16:22:19.033Z,40.50
2023-05-14T16:24:45.985Z,40.80
2023-05-14T16:27:12.871Z,40.30
2023-05-14T16:29:39.733Z,39.50
2023-05-14T16:32:06.839Z,39.60
2023-05-14T16:34:33.734Z,38.50
2023-05-14T16:37:00.853Z,38.50
2023-05-14T16:39:27.822Z,38.50
2023-05-14T16:41:54.585Z,38.90
2023-05-14T16:44:21.447Z,39.50
2023-05-14T16:46:48.613Z,40.50
2023-05-14T16:49:15.536Z,40.90
2023-05-14T16:51:43.892Z,40.80
2023-05-14T16:54:10.993Z,40.10
2023-05-14T16:56:37.907Z,40.10
2023-05-14T16:59:04.750Z,40.00
2023-05-14T17:01:32.218Z,39.20
2023-05-14T17:03:59.222Z,38.40
2023-05-14T17:06:26.152Z,38.20
2023-05-14T17:08:52.914Z,37.90
2023-05-14T17:11:21.039Z,38.20
2023-05-14T17:13:47.815Z,38.10
2023-05-14T17:16:14.749Z,38.80
2023-05-14T17:18:41.711Z,39.50
2023-05-14T17:21:08.801Z,39.90
2023-05-14T17:23:35.565Z,40.40
2023-05-14T17:26:02.529Z,41.20
2023-05-14T17:28:30.036Z,41.80
2023-05-14T17:30:57.170Z,43.30
2023-05-14T17:33:24.276Z,44.60
2023-05-14T17:35:51.944Z,45.80
2023-05-14T17:38:18.770Z,46.50
2023-05-14T17:40:45.605Z,47.10
2023-05-14T17:43:12.568Z,47.60
2023-05-14T17:45:52.552Z,47.90
2023-05-14T17:48:21.183Z,48.10
2023-05-14T17:50:48.275Z,48.20
2023-05-14T17:53:15.092Z,48.20
2023-05-14T17:55:43.683Z,48.20
2023-05-14T17:58:15.485Z,48.50
2023-05-14T18:00:43.469Z,48.50
2023-05-14T18:03:11.323Z,48.50
2023-05-14T18:05:38.435Z,48.60
2023-05-14T18:08:05.508Z,49.00
2023-05-14T18:10:32.367Z,49.30
2023-05-14T18:12:59.259Z,50.40
2023-05-14T18:15:27.344Z,49.80
2023-05-14T18:17:54.468Z,50.10
2023-05-14T18:20:21.497Z,50.40
2023-05-14T18:22:49.307Z,50.70
2023-05-14T18:25:16.516Z,51.20
2023-05-14T18:27:45.008Z,51.40
2023-05-14T18:30:14.520Z,51.60
2023-05-14T18:32:43.638Z,51.90
2023-05-14T18:35:11.515Z,52.00
2023-05-14T18:37:38.625Z,52.00
2023-05-14T18:40:06.980Z,52.00
2023-05-14T18:42:35.066Z,52.10
2023-05-14T18:45:02.279Z,52.00
2023-05-14T18:47:29.273Z,51.80
2023-05-14T18:49:58.938Z,51.90
2023-05-14T18:52:26.438Z,51.50
2023-05-14T18:54:54.666Z,51.40
2023-05-14T18:57:21.887Z,51.50
2023-05-14T18:59:48.860Z,51.60
2023-05-14T19:02:16.238Z,51.60
2023-05-14T19:04:51.650Z,51.30
2023-05-14T19:07:20.115Z,51.30
2023-05-14T19:09:46.936Z,51.50
2023-05-14T19:12:14.240Z,51.80
2023-05-14T19:14:41.249Z,52.00
2023-05-14T19:17:08.128Z,52.20
2023-05-14T19:19:35.177Z,52.20
2023-05-14T19:22:02.027Z,52.30
2023-05-14T19:24:28.911Z,52.30
2023-05-14T19:26:55.928Z,52.30
2023-05-14T19:29:22.765Z,52.40
2023-05-14T19:31:50.026Z,52.50
2023-05-14T19:34:16.991Z,52.50
2023-05-14T19:36:43.756Z,52.60
2023-05-14T19:39:10.937Z,52.50
2023-05-14T19:41:37.933Z,52.60
2023-05-14T19:44:04.790Z,52.50
2023-05-14T19:46:31.724Z,52.50
2023-05-14T19:48:58.616Z,52.40
2023-05-14T19:51:25.615Z,52.60
2023-05-14T19:53:52.431Z,52.90
2023-05-14T19:56:19.319Z,52.90
2023-05-14T19:58:46.078Z,53.00
2023-05-14T20:01:13.076Z,52.80
2023-05-14T20:03:40.091Z,52.90
2023-05-14T20:06:07.846Z,53.10
2023-05-14T20:08:34.730Z,53.10
2023-05-14T20:11:01.852Z,53.20
2023-05-14T20:13:31.766Z,53.00
2023-05-14T20:15:58.956Z,54.10
2023-05-14T20:18:25.954Z,54.80
2023-05-14T20:20:52.746Z,54.00
2023-05-14T20:23:20.552Z,53.20
2023-05-14T20:25:47.844Z,52.80
2023-05-14T20:28:14.822Z,52.60
2023-05-14T20:30:41.723Z,52.60
2023-05-14T20:33:08.651Z,52.90
2023-05-14T20:35:36.020Z,52.80
2023-05-14T20:38:03.742Z,53.00
2023-05-14T20:40:32.646Z,52.90
2023-05-14T20:42:59.638Z,52.80
2023-05-14T20:45:26.712Z,53.10
2023-05-14T20:47:53.916Z,53.20
2023-05-14T20:50:22.503Z,53.20
2023-05-14T20:52:49.257Z,53.40
2023-05-14T20:55:16.154Z,53.70
2023-05-14T20:57:43.559Z,53.70
2023-05-14T21:00:11.368Z,53.50
2023-05-14T21:02:38.434Z,53.90
2023-05-14T21:05:05.816Z,53.90
2023-05-14T21:07:32.855Z,53.90
2023-05-14T21:09:59.711Z,53.90
2023-05-14T21:12:26.482Z,53.90
2023-05-14T21:14:53.289Z,54.70
2023-05-14T21:17:20.089Z,53.70
2023-05-14T21:19:46.925Z,53.80
2023-05-14T21:22:13.991Z,53.70
2023-05-14T21:24:40.875Z,53.80
2023-05-14T21:27:07.765Z,53.90
2023-05-14T21:29:34.643Z,53.90
2023-05-14T21:32:01.657Z,53.80
2023-05-14T21:34:31.122Z,54.00
2023-05-14T21:36:58.954Z,54.10
2023-05-14T21:39:25.900Z,54.10
2023-05-14T21:41:52.716Z,54.10
2023-05-14T21:44:19.476Z,53.90
2023-05-14T21:46:47.269Z,54.00
2023-05-14T21:49:14.092Z,54.30
2023-05-14T21:51:40.882Z,54.30
2023-05-14T21:54:07.820Z,54.10
2023-05-14T21:56:35.921Z,54.10
2023-05-14T21:59:02.845Z,54.10
2023-05-14T22:01:29.639Z,54.00
2023-05-14T22:03:57.934Z,54.00
2023-05-14T22:06:25.209Z,54.40
2023-05-14T22:08:52.005Z,56.00
2023-05-14T22:11:18.926Z,56.20
2023-05-14T22:13:45.770Z,56.00
2023-05-14T22:16:14.039Z,56.00
2023-05-14T22:18:41.510Z,56.20
2023-05-14T22:21:08.496Z,55.90
2023-05-14T22:23:35.289Z,56.10
2023-05-14T22:26:02.053Z,56.30
2023-05-14T22:28:29.006Z,56.40
2023-05-14T22:30:56.602Z,56.50
2023-05-14T22:33:23.476Z,56.80
2023-05-14T22:35:50.604Z,57.00
2023-05-14T22:38:17.426Z,56.80
2023-05-14T22:40:44.256Z,57.50
2023-05-14T22:43:11.162Z,56.80
2023-05-14T22:45:37.973Z,56.50
2023-05-14T22:48:04.952Z,57.10
2023-05-14T22:50:31.948Z,56.50
2023-05-14T22:52:58.672Z,56.50
2023-05-14T22:55:25.617Z,56.90
2023-05-14T22:57:52.578Z,57.10
2023-05-14T23:00:19.636Z,57.30
2023-05-14T23:02:46.408Z,57.30
2023-05-14T23:05:13.414Z,57.10
2023-05-14T23:07:40.508Z,57.20
2023-05-14T23:10:07.737Z,57.40
2023-05-14T23:12:34.560Z,57.70
2023-05-14T23:15:01.495Z,57.60
2023-05-14T23:17:28.573Z,57.60
2023-05-14T23:19:55.730Z,57.50
2023-05-14T23:22:22.550Z,57.50
2023-05-14T23:24:49.375Z,57.60
2023-05-14T23:27:16.467Z,57.60
2023-05-14T23:29:43.222Z,57.60
2023-05-14T23:32:10.141Z,57.80
2023-05-14T23:34:36.973Z,57.80
2023-05-14T23:37:03.772Z,57.90
2023-05-14T23:39:30.612Z,58.10
2023-05-14T23:41:57.333Z,57.90
2023-05-14T23:44:24.107Z,58.00
2023-05-14T23:46:51.005Z,58.10
2023-05-14T23:49:17.879Z,58.10
2023-05-14T23:51:44.748Z,58.20
2023-05-14T23:54:11.750Z,58.20
2023-05-14T23:56:38.698Z,58.20
2023-05-14T23:59:05.630Z,58.20
